Time;durP1;ratioP1;P1;durP2;ratioP2;P2;SDS_P1;SDS_P2;PMS_P1;PMS_P2;Temp;Humidity;BMP_temperature;BMP_pressure;BME280_temperature;BME280_humidity;BME280_pressure;Samples;Min_cycle;Max_cycle;Signal;HPM_P1;HPM_P2
2023/04/29 00:01:24;;;;;;;76.82;32.30;;;;;;;9.65;100.00;101281.75;4975262;28;20554;-71
2023/04/29 00:03:52;;;;;;;81.65;31.65;;;;;;;9.61;100.00;101274.81;4975727;28;20520;-71
2023/04/29 00:06:20;;;;;;;84.03;36.53;;;;;;;9.60;100.00;101281.84;4975322;28;20352;-71
2023/04/29 00:08:48;;;;;;;82.60;34.58;;;;;;;9.60;100.00;101280.97;4982233;28;20046;-71
2023/04/29 00:11:15;;;;;;;73.57;31.80;;;;;;;9.56;100.00;101284.56;4983641;28;20044;-71
2023/04/29 00:13:42;;;;;;;88.38;35.65;;;;;;;9.53;100.00;101285.47;4982939;28;20058;-70
2023/04/29 00:16:09;;;;;;;78.82;33.10;;;;;;;9.54;100.00;101291.63;4987388;28;20050;-71
2023/04/29 00:18:36;;;;;;;75.15;31.95;;;;;;;9.55;100.00;101288.94;4989905;28;20050;-71
2023/04/29 00:21:07;;;;;;;72.28;32.80;;;;;;;9.57;100.00;101288.91;4986764;28;20053;-71
2023/04/29 00:23:34;;;;;;;72.07;33.72;;;;;;;9.57;100.00;101296.81;4982810;28;20038;-71
2023/04/29 00:26:02;;;;;;;73.75;34.60;;;;;;;9.58;100.00;101306.44;4975174;28;20526;-71
2023/04/29 00:28:29;;;;;;;70.60;34.55;;;;;;;9.58;100.00;101294.16;4980522;28;20155;-71
2023/04/29 00:30:56;;;;;;;64.13;32.30;;;;;;;9.60;99.83;101304.66;4977903;28;20149;-72
2023/04/29 00:33:23;;;;;;;67.95;34.67;;;;;;;9.59;99.71;101306.44;4981003;28;20071;-71
2023/04/29 00:35:50;;;;;;;73.13;33.58;;;;;;;9.60;99.48;101304.66;4965418;28;20051;-70
2023/04/29 00:38:18;;;;;;;70.88;34.22;;;;;;;9.58;99.51;101306.44;4975394;28;20122;-70
2023/04/29 00:40:45;;;;;;;69.32;34.35;;;;;;;9.54;99.21;101315.31;4974205;28;20048;-71
2023/04/29 00:43:12;;;;;;;67.38;36.70;;;;;;;9.49;99.65;101307.50;4982807;28;20043;-71
2023/04/29 00:45:39;;;;;;;71.60;35.80;;;;;;;9.50;100.00;101316.25;4964041;28;20082;-71
2023/04/29 00:48:06;;;;;;;74.93;38.47;;;;;;;9.50;100.00;101311.00;4977466;28;20853;-71
2023/04/29 00:50:35;;;;;;;73.25;35.83;;;;;;;9.48;100.00;101318.91;4976814;28;20050;-71
2023/04/29 00:53:03;;;;;;;79.07;36.75;;;;;;;9.46;100.00;101321.56;4977103;28;20038;-71
2023/04/29 00:55:32;;;;;;;66.05;34.15;;;;;;;9.46;100.00;101311.03;4977954;28;20126;-71
2023/04/29 00:58:01;;;;;;;62.35;32.95;;;;;;;9.47;100.00;101319.81;4982724;28;20319;-71
2023/04/29 01:00:29;;;;;;;61.90;31.52;;;;;;;9.44;99.86;101326.00;4974292;28;20047;-72
2023/04/29 01:02:58;;;;;;;52.95;29.02;;;;;;;9.43;99.44;101333.91;4982648;28;20121;-71
2023/04/29 01:05:26;;;;;;;48.83;28.45;;;;;;;9.41;99.85;101333.09;4975042;28;20058;-71
2023/04/29 01:08:43;;;;;;;48.40;27.08;;;;;;;9.40;99.88;101331.34;4967549;28;20031;-71
2023/04/29 01:11:12;;;;;;;47.25;27.48;;;;;;;9.41;99.83;101327.84;4976613;28;20043;-71
2023/04/29 01:13:50;;;;;;;45.95;26.90;;;;;;;9.41;99.63;101333.94;4992369;28;20714;-71
2023/04/29 01:16:30;;;;;;;50.58;25.25;;;;;;;9.44;99.36;101338.28;4978564;28;20106;-71
2023/04/29 01:19:37;;;;;;;52.00;24.38;;;;;;;9.41;98.60;101344.47;4963374;28;20053;-71
2023/04/29 01:22:04;;;;;;;47.20;25.38;;;;;;;9.36;98.97;101350.72;4976099;28;20527;-71
2023/04/29 01:24:32;;;;;;;48.47;24.13;;;;;;;9.32;99.54;101345.50;4994591;28;20042;-71
2023/04/29 01:27:13;;;;;;;47.22;25.30;;;;;;;9.30;99.69;101347.31;4977311;28;21832;-72
2023/04/29 01:29:58;;;;;;;47.13;25.17;;;;;;;9.28;99.86;101341.19;4979458;28;20785;-71
2023/04/29 01:32:45;;;;;;;52.20;26.52;;;;;;;9.28;100.00;101349.09;4974693;28;20546;-71
2023/04/29 01:35:43;;;;;;;42.97;24.55;;;;;;;9.27;100.00;101349.97;4972820;28;20122;-70
2023/04/29 01:38:38;;;;;;;53.15;24.92;;;;;;;9.24;100.00;101359.69;4979085;28;20051;-71
2023/04/29 01:41:33;;;;;;;45.47;23.30;;;;;;;9.21;100.00;101365.00;4993095;28;20043;-70
2023/04/29 01:44:19;;;;;;;51.28;25.40;;;;;;;9.16;100.00;101367.69;4994270;28;20045;-70
2023/04/29 01:46:52;;;;;;;52.90;25.63;;;;;;;9.12;100.00;101366.88;4975598;28;20045;-71
2023/04/29 01:49:29;;;;;;;48.05;25.02;;;;;;;9.09;100.00;101364.28;4976884;28;20047;-70
2023/04/29 01:51:58;;;;;;;51.40;24.58;;;;;;;9.05;100.00;101370.50;4986550;28;20059;-70
2023/04/29 01:54:25;;;;;;;47.50;24.02;;;;;;;9.03;100.00;101372.28;4977887;28;20061;-71
2023/04/29 01:56:54;;;;;;;48.38;24.85;;;;;;;9.04;100.00;101370.50;4979987;28;20125;-71
2023/04/29 01:59:47;;;;;;;49.00;24.58;;;;;;;9.02;100.00;101367.91;4986220;28;20075;-71
2023/04/29 02:02:37;;;;;;;51.10;25.13;;;;;;;9.00;100.00;101369.69;4983965;28;20713;-71
2023/04/29 02:05:15;;;;;;;47.85;24.92;;;;;;;8.98;100.00;101364.47;4972148;28;20589;-71
2023/04/29 02:07:50;;;;;;;52.58;27.10;;;;;;;8.98;100.00;101371.47;4985066;28;20059;-70
2023/04/29 02:10:17;;;;;;;48.88;24.63;;;;;;;8.97;100.00;101378.50;4986984;28;20039;-71
2023/04/29 02:12:49;;;;;;;50.65;25.25;;;;;;;8.98;100.00;101375.00;4985387;28;20771;-71
2023/04/29 02:15:19;;;;;;;47.97;23.13;;;;;;;8.96;100.00;101382.03;4985708;28;20093;-71
2023/04/29 02:17:46;;;;;;;42.20;23.00;;;;;;;8.97;100.00;101383.78;4981425;28;20048;-71
2023/04/29 02:20:13;;;;;;;44.95;23.23;;;;;;;8.95;100.00;101379.44;4972715;28;20115;-71
2023/04/29 02:22:40;;;;;;;48.28;23.52;;;;;;;8.93;100.00;101376.81;4981040;28;20035;-71
2023/04/29 02:25:08;;;;;;;51.92;24.27;;;;;;;8.93;100.00;101383.84;4981381;28;20043;-71
2023/04/29 02:27:36;;;;;;;43.90;23.40;;;;;;;8.94;100.00;101381.16;4981334;28;20895;-71
2023/04/29 02:30:05;;;;;;;45.83;23.27;;;;;;;8.96;100.00;101389.91;4974373;28;20043;-71
2023/04/29 02:32:32;;;;;;;45.45;22.25;;;;;;;8.97;100.00;101394.28;4974443;28;20524;-70
2023/04/29 02:34:59;;;;;;;45.95;24.08;;;;;;;8.97;100.00;101393.41;4976756;28;20040;-71
2023/04/29 02:37:27;;;;;;;42.70;22.90;;;;;;;8.98;100.00;101403.03;4982794;28;20126;-71
2023/04/29 02:39:54;;;;;;;48.22;22.48;;;;;;;8.98;100.00;101398.66;4984981;28;20070;-71
2023/04/29 02:42:22;;;;;;;48.03;23.15;;;;;;;9.01;100.00;101403.00;4978190;28;20038;-70
2023/04/29 02:44:49;;;;;;;45.65;21.73;;;;;;;9.02;100.00;101405.59;4995381;28;20043;-71
2023/04/29 02:47:16;;;;;;;37.65;20.70;;;;;;;9.05;100.00;101416.97;4971729;28;20621;-71
2023/04/29 02:49:44;;;;;;;40.50;21.77;;;;;;;9.05;100.00;101416.97;4977068;28;20042;-71
2023/04/29 02:52:11;;;;;;;46.42;23.25;;;;;;;9.04;100.00;101409.97;4980342;28;20043;-71
2023/04/29 02:54:38;;;;;;;43.05;22.73;;;;;;;9.04;100.00;101418.75;4980500;28;20047;-71
2023/04/29 02:57:06;;;;;;;47.65;23.73;;;;;;;9.03;100.00;101422.25;4983710;28;20129;-71
2023/04/29 02:59:33;;;;;;;39.30;21.15;;;;;;;9.05;100.00;101415.22;4977879;28;20043;-71
2023/04/29 03:02:01;;;;;;;44.05;21.98;;;;;;;9.06;100.00;101422.19;4971245;28;20051;-71
2023/04/29 03:04:28;;;;;;;42.65;21.63;;;;;;;9.03;100.00;101422.25;4981686;28;20031;-71
2023/04/29 03:06:57;;;;;;;38.55;20.55;;;;;;;9.06;100.00;101424.81;4974316;28;20049;-71
2023/04/29 03:09:26;;;;;;;38.95;20.27;;;;;;;9.07;100.00;101426.56;4981212;28;20071;-71
2023/04/29 03:11:53;;;;;;;37.72;20.25;;;;;;;9.09;100.00;101431.81;4983736;28;20082;-71
2023/04/29 03:14:21;;;;;;;39.65;20.42;;;;;;;9.08;100.00;101430.06;4978567;28;20077;-70
2023/04/29 03:16:49;;;;;;;37.40;19.55;;;;;;;9.09;100.00;101437.09;4958589;28;20043;-70
2023/04/29 03:19:16;;;;;;;38.03;19.98;;;;;;;9.11;100.00;101443.16;4977023;28;20039;-70
2023/04/29 03:21:44;;;;;;;36.47;20.20;;;;;;;9.11;100.00;101435.28;4985217;28;20043;-70
2023/04/29 03:24:12;;;;;;;37.03;20.42;;;;;;;9.09;100.00;101443.19;4986480;28;20502;-71
2023/04/29 03:26:41;;;;;;;37.33;18.77;;;;;;;9.07;100.00;101444.13;4963054;28;20039;-71
2023/04/29 03:29:08;;;;;;;37.22;20.15;;;;;;;9.05;100.00;101441.53;4975419;28;20141;-71
2023/04/29 03:31:36;;;;;;;36.63;19.58;;;;;;;9.04;100.00;101445.03;4947972;28;20076;-71
2023/04/29 03:34:03;;;;;;;39.15;20.45;;;;;;;9.02;100.00;101439.78;4973270;28;20043;-70
2023/04/29 03:36:33;;;;;;;44.45;20.30;;;;;;;9.04;100.00;101445.03;4983457;28;20306;-70
2023/04/29 03:39:04;;;;;;;39.65;19.63;;;;;;;9.04;100.00;101446.78;4984943;28;20045;-70
2023/04/29 03:41:32;;;;;;;39.03;19.80;;;;;;;9.04;100.00;101449.41;4981665;28;20130;-70
2023/04/29 03:43:59;;;;;;;40.08;20.25;;;;;;;9.02;100.00;101444.19;4990519;28;20126;-70
2023/04/29 03:46:28;;;;;;;34.97;18.27;;;;;;;9.02;100.00;101444.19;4995415;28;20059;-70
2023/04/29 03:48:56;;;;;;;39.42;20.30;;;;;;;9.05;100.00;101456.41;4981001;28;20047;-71
2023/04/29 03:51:24;;;;;;;38.10;19.65;;;;;;;9.07;100.00;101457.28;4977522;28;20047;-70
2023/04/29 03:53:58;;;;;;;36.95;19.75;;;;;;;9.08;100.00;101456.38;4986718;28;20133;-70
2023/04/29 03:56:25;;;;;;;37.50;20.35;;;;;;;9.08;100.00;101459.88;4986092;28;20099;-70
2023/04/29 03:58:53;;;;;;;38.63;20.20;;;;;;;9.09;100.00;101461.59;4970149;28;20063;-71
2023/04/29 04:01:22;;;;;;;37.97;19.30;;;;;;;9.10;100.00;101465.97;4991061;28;20726;-71
2023/04/29 04:03:51;;;;;;;38.67;20.02;;;;;;;9.08;100.00;101467.75;4968706;28;20044;-71
2023/04/29 04:06:18;;;;;;;38.42;20.90;;;;;;;9.08;100.00;101473.03;4983984;28;20118;-71
2023/04/29 04:08:46;;;;;;;38.35;20.52;;;;;;;9.09;100.00;101474.75;4981082;28;20044;-70
2023/04/29 04:11:17;;;;;;;40.55;21.00;;;;;;;9.10;100.00;101480.91;4958008;28;20114;-72
2023/04/29 04:13:49;;;;;;;39.25;20.30;;;;;;;9.09;100.00;101473.91;4976616;28;20570;-70
2023/04/29 04:16:18;;;;;;;34.42;19.02;;;;;;;9.10;100.00;101478.28;4975156;28;20038;-71
2023/04/29 04:18:45;;;;;;;39.75;20.55;;;;;;;9.10;100.00;101478.28;4950460;28;20098;-71
2023/04/29 04:21:13;;;;;;;37.30;19.45;;;;;;;9.11;100.00;101486.13;4971281;28;20047;-71
2023/04/29 04:23:45;;;;;;;32.92;19.17;;;;;;;9.11;100.00;101495.78;4975038;28;20054;-71
2023/04/29 04:26:17;;;;;;;35.92;19.65;;;;;;;9.10;100.00;101494.06;4986448;28;20039;-72
2023/04/29 04:28:56;;;;;;;38.72;20.17;;;;;;;9.11;100.00;101487.88;4986452;28;20061;-71
2023/04/29 04:31:33;;;;;;;34.83;20.60;;;;;;;9.12;100.00;101498.41;4973411;28;20565;-70
2023/04/29 04:34:00;;;;;;;36.03;20.08;;;;;;;9.12;100.00;101502.78;4983352;28;20097;-70
2023/04/29 04:36:31;;;;;;;37.35;19.83;;;;;;;9.13;100.00;101504.53;4979888;28;20054;-70
2023/04/29 04:38:58;;;;;;;34.30;19.08;;;;;;;9.14;100.00;101515.03;5002153;28;20063;-71
2023/04/29 04:41:26;;;;;;;34.65;19.35;;;;;;;9.13;100.00;101508.03;4976327;28;20164;-71
2023/04/29 04:43:53;;;;;;;37.17;19.77;;;;;;;9.13;100.00;101513.28;4974395;28;20511;-71
2023/04/29 04:46:43;;;;;;;39.35;21.42;;;;;;;9.15;100.00;101515.91;4974038;28;20059;-71
2023/04/29 04:49:33;;;;;;;39.17;20.75;;;;;;;9.15;100.00;101518.53;4973205;28;20055;-70
2023/04/29 04:52:00;;;;;;;41.63;20.20;;;;;;;9.14;100.00;101517.66;4982344;28;20043;-71
2023/04/29 04:54:27;;;;;;;40.42;21.40;;;;;;;9.14;100.00;101520.31;4980753;28;20474;-71
2023/04/29 04:57:04;;;;;;;35.72;20.30;;;;;;;9.16;100.00;101520.28;4972522;28;20494;-71
2023/04/29 04:59:33;;;;;;;37.30;21.08;;;;;;;9.17;100.00;101530.75;4974173;28;20047;-71
2023/04/29 05:02:00;;;;;;;38.60;20.15;;;;;;;9.17;100.00;101527.28;4971020;28;20043;-71
2023/04/29 05:04:28;;;;;;;41.10;21.35;;;;;;;9.15;100.00;101537.84;4974788;28;20523;-71
2023/04/29 05:06:55;;;;;;;34.95;20.52;;;;;;;9.16;100.00;101539.53;4998998;28;20034;-71
2023/04/29 05:09:25;;;;;;;37.13;21.98;;;;;;;9.16;100.00;101544.81;4979865;28;20494;-71
2023/04/29 05:11:53;;;;;;;36.08;21.30;;;;;;;9.16;100.00;101546.56;4987594;28;20046;-71
2023/04/29 05:14:20;;;;;;;42.13;22.02;;;;;;;9.17;100.00;101548.31;4977550;28;20062;-71
2023/04/29 05:16:47;;;;;;;39.35;22.20;;;;;;;9.18;100.00;101560.59;4973585;28;20476;-70
2023/04/29 05:19:15;;;;;;;43.70;21.55;;;;;;;9.18;100.00;101560.59;4978917;28;20042;-70
2023/04/29 05:21:42;;;;;;;32.55;19.63;;;;;;;9.17;100.00;101564.97;4975858;28;20138;-75
2023/04/29 05:24:10;;;;;;;36.45;19.17;;;;;;;9.24;100.00;101576.28;4982256;28;20088;-75
2023/04/29 05:26:37;;;;;;;28.58;17.33;;;;;;;9.26;100.00;101568.38;4980825;28;20453;-75
2023/04/29 05:29:05;;;;;;;30.23;18.38;;;;;;;9.26;100.00;101573.66;4984186;28;20052;-75
2023/04/29 05:31:42;;;;;;;27.17;16.63;;;;;;;9.26;100.00;101569.25;4974244;28;20577;-76
2023/04/29 05:34:09;;;;;;;26.65;16.40;;;;;;;9.26;100.00;101574.50;4979922;28;20050;-74
2023/04/29 05:36:37;;;;;;;22.75;15.25;;;;;;;9.26;99.93;101579.78;4984276;28;20461;-75
2023/04/29 05:39:04;;;;;;;26.17;16.40;;;;;;;9.26;99.70;101581.53;4995811;28;20098;-75
2023/04/29 05:41:31;;;;;;;27.10;16.70;;;;;;;9.27;99.35;101591.16;4987061;28;20611;-75
2023/04/29 05:44:18;;;;;;;29.42;16.10;;;;;;;9.27;99.52;101589.41;4989656;28;20479;-75
2023/04/29 05:46:47;;;;;;;28.80;15.93;;;;;;;9.29;99.44;101586.75;4980614;28;20566;-75
2023/04/29 05:49:15;;;;;;;25.58;16.40;;;;;;;9.32;99.72;101603.34;4990197;28;20547;-75
2023/04/29 05:51:42;;;;;;;31.15;17.60;;;;;;;9.31;99.86;101587.59;4992918;28;21860;-75
2023/04/29 05:54:09;;;;;;;28.50;15.35;;;;;;;9.37;99.19;101595.41;4980056;28;20035;-75
2023/04/29 05:56:36;;;;;;;24.77;15.85;;;;;;;9.39;98.55;101600.66;4976123;28;20067;-75
2023/04/29 05:59:03;;;;;;;22.98;14.85;;;;;;;9.44;97.76;101604.09;4979093;28;20031;-75
2023/04/29 06:01:32;;;;;;;22.90;15.52;;;;;;;9.45;97.31;101608.47;4989578;28;20039;-75
2023/04/29 06:03:59;;;;;;;23.80;14.98;;;;;;;9.46;96.47;101608.44;4959855;28;20040;-75
2023/04/29 06:06:34;;;;;;;23.35;14.95;;;;;;;9.46;96.49;101618.97;4988021;28;20074;-70
2023/04/29 06:09:20;;;;;;;23.98;15.80;;;;;;;9.46;96.63;101616.34;5000159;28;20185;-70
2023/04/29 06:12:00;;;;;;;26.48;15.15;;;;;;;9.50;96.43;101616.31;4986496;28;20109;-70
2023/04/29 06:14:27;;;;;;;21.50;14.32;;;;;;;9.54;96.18;101621.50;5002682;28;20055;-71
2023/04/29 06:16:54;;;;;;;23.58;14.23;;;;;;;9.61;96.34;101627.56;4984244;28;20059;-72
2023/04/29 06:19:24;;;;;;;20.33;13.00;;;;;;;9.67;95.40;101629.25;4972472;28;20067;-73
2023/04/29 06:21:51;;;;;;;20.90;14.60;;;;;;;9.71;95.69;101638.84;4972558;28;20050;-73
2023/04/29 06:24:18;;;;;;;20.67;13.57;;;;;;;9.78;95.18;101637.88;4992312;28;20106;-72
2023/04/29 06:26:46;;;;;;;19.17;12.82;;;;;;;9.83;94.81;101643.06;4978658;28;20482;-72
2023/04/29 06:29:13;;;;;;;20.50;13.85;;;;;;;9.87;94.10;101645.63;5002664;28;20035;-71
2023/04/29 06:31:40;;;;;;;21.00;12.57;;;;;;;9.93;93.74;101648.16;4995215;28;20042;-71
2023/04/29 06:34:07;;;;;;;21.27;12.50;;;;;;;10.00;93.25;101648.09;4982078;28;20543;-72
2023/04/29 06:36:44;;;;;;;19.17;12.65;;;;;;;10.04;93.51;101647.13;5005414;28;20122;-70
2023/04/29 06:39:28;;;;;;;18.85;12.52;;;;;;;10.13;93.22;101649.63;4992568;28;20603;-71
2023/04/29 06:42:13;;;;;;;19.15;12.52;;;;;;;10.25;92.37;101654.69;4986378;28;20097;-71
2023/04/29 06:45:04;;;;;;;19.30;12.20;;;;;;;10.39;91.26;101658.94;4982191;28;20043;-71
2023/04/29 06:47:50;;;;;;;19.92;12.82;;;;;;;10.51;91.34;101666.63;4970711;28;21863;-71
2023/04/29 06:50:28;;;;;;;21.77;13.60;;;;;;;10.67;90.85;101671.63;4981414;28;20058;-71
2023/04/29 06:52:55;;;;;;;20.98;13.38;;;;;;;10.83;90.01;101672.22;4969887;28;20122;-71
2023/04/29 06:55:22;;;;;;;19.95;13.35;;;;;;;10.97;90.58;101686.06;4971938;28;20115;-71
2023/04/29 06:57:49;;;;;;;21.08;13.02;;;;;;;11.13;89.43;101680.47;4974824;28;20126;-71
2023/04/29 07:00:18;;;;;;;19.77;12.88;;;;;;;11.22;89.17;101682.06;4974086;28;20043;-71
2023/04/29 07:02:45;;;;;;;20.98;13.77;;;;;;;11.29;87.88;101683.69;4956815;28;20070;-71
2023/04/29 07:05:12;;;;;;;20.52;12.50;;;;;;;11.29;88.54;101684.53;4991497;28;20039;-71
2023/04/29 07:07:42;;;;;;;18.30;11.77;;;;;;;11.30;86.93;101688.06;4990257;28;20114;-70
2023/04/29 07:10:09;;;;;;;19.80;13.00;;;;;;;11.25;86.33;101700.47;4970937;28;20518;-71
2023/04/29 07:12:36;;;;;;;21.98;13.18;;;;;;;11.21;86.98;101690.88;4980161;28;20662;-70
2023/04/29 07:15:04;;;;;;;20.15;12.68;;;;;;;11.22;87.50;101706.69;4984572;28;20134;-71
2023/04/29 07:17:31;;;;;;;19.95;12.52;;;;;;;11.24;86.47;101704.03;4984997;28;20868;-71
2023/04/29 07:19:58;;;;;;;20.80;12.55;;;;;;;11.16;84.88;101707.66;4983986;28;20256;-71
2023/04/29 07:22:25;;;;;;;18.52;12.90;;;;;;;11.11;86.50;101716.56;4984745;28;20035;-71
2023/04/29 07:24:56;;;;;;;19.65;12.63;;;;;;;11.09;86.99;101715.75;4974179;28;20609;-71
2023/04/29 07:27:24;;;;;;;17.63;13.40;;;;;;;11.10;87.00;101718.34;4984038;28;20054;-70
2023/04/29 07:29:51;;;;;;;19.45;12.18;;;;;;;11.10;87.04;101718.34;4986346;28;20147;-71
2023/04/29 07:32:18;;;;;;;25.33;13.38;;;;;;;11.13;87.19;101725.34;4969508;28;20071;-71
2023/04/29 07:34:46;;;;;;;19.50;12.77;;;;;;;11.17;87.41;101724.38;4984412;28;20566;-71
2023/04/29 07:37:14;;;;;;;19.25;12.60;;;;;;;11.25;87.91;101721.59;4985844;28;20463;-71
2023/04/29 07:39:41;;;;;;;17.42;11.70;;;;;;;11.33;85.79;101722.34;4969258;28;20038;-70
2023/04/29 07:42:09;;;;;;;16.90;12.20;;;;;;;11.35;85.04;101733.69;4985377;28;20043;-70
2023/04/29 07:44:36;;;;;;;19.60;13.23;;;;;;;11.35;83.65;101738.97;4984993;28;20047;-71
2023/04/29 07:47:03;;;;;;;21.65;12.25;;;;;;;11.34;83.48;101737.28;4969021;28;20054;-70
2023/04/29 07:49:30;;;;;;;19.38;12.43;;;;;;;11.32;84.37;101745.19;4984730;28;20050;-70
2023/04/29 07:51:57;;;;;;;17.52;12.13;;;;;;;11.37;84.01;101752.19;4968867;28;20082;-71
2023/04/29 07:54:25;;;;;;;19.80;12.35;;;;;;;11.37;84.22;101753.03;4984759;28;20054;-70
2023/04/29 07:56:52;;;;;;;18.25;12.18;;;;;;;11.38;84.92;101752.13;4985484;28;20105;-70
2023/04/29 07:59:19;;;;;;;21.55;13.25;;;;;;;11.46;85.06;101754.63;4985442;28;20039;-71
2023/04/29 08:01:46;;;;;;;17.55;11.75;;;;;;;11.53;85.89;101761.53;4969169;28;20119;-72
2023/04/29 08:04:13;;;;;;;17.02;12.05;;;;;;;11.67;83.78;101758.59;4985674;28;20057;-70
2023/04/29 08:06:54;;;;;;;18.25;13.25;;;;;;;11.78;83.04;101759.25;4970838;28;20490;-70
2023/04/29 08:09:21;;;;;;;17.58;12.60;;;;;;;11.81;82.36;101761.84;4985061;28;20043;-69
2023/04/29 08:11:48;;;;;;;19.27;12.32;;;;;;;11.92;81.97;101766.03;4984510;28;20043;-72
2023/04/29 08:14:15;;;;;;;18.27;12.07;;;;;;;12.04;81.56;101770.22;4968639;28;20043;-69
2023/04/29 08:16:42;;;;;;;20.10;12.82;;;;;;;12.13;82.08;101766.50;5001096;28;20049;-72
2023/04/29 08:19:09;;;;;;;18.20;12.00;;;;;;;12.30;81.94;101763.50;4983995;28;20490;-72
2023/04/29 08:21:36;;;;;;;17.90;12.07;;;;;;;12.49;82.16;101769.22;4985688;28;20103;-70
2023/04/29 08:24:04;;;;;;;17.83;11.73;;;;;;;12.69;80.24;101764.31;4979093;28;20043;-70
2023/04/29 08:26:31;;;;;;;20.73;12.30;;;;;;;12.86;79.70;101761.25;4976172;28;20050;-70
2023/04/29 08:28:59;;;;;;;16.75;11.23;;;;;;;13.06;76.71;101767.81;4970615;28;20673;-69
2023/04/29 08:31:26;;;;;;;17.60;11.43;;;;;;;13.05;75.84;101768.72;4985059;28;20086;-69
2023/04/29 08:33:53;;;;;;;16.27;10.63;;;;;;;13.02;75.77;101764.38;4969028;28;20043;-70
2023/04/29 08:36:20;;;;;;;18.73;10.25;;;;;;;13.12;76.13;101777.38;4969675;28;20133;-69
2023/04/29 08:38:47;;;;;;;17.30;11.35;;;;;;;13.24;75.16;101777.06;4969790;28;20043;-70
2023/04/29 08:41:15;;;;;;;16.75;11.07;;;;;;;13.39;75.00;101775.81;4984471;28;20040;-70
2023/04/29 08:43:43;;;;;;;20.85;10.65;;;;;;;13.54;76.05;101773.63;4969551;28;20830;-70
2023/04/29 08:46:10;;;;;;;20.58;10.52;;;;;;;13.75;75.59;101775.66;4969274;28;20122;-70
2023/04/29 08:48:42;;;;;;;16.25;10.73;;;;;;;13.97;72.17;101783.88;4968902;28;20514;-70
2023/04/29 08:51:12;;;;;;;14.52;10.38;;;;;;;13.95;73.44;101780.41;4969628;28;20788;-70
2023/04/29 08:53:39;;;;;;;15.82;9.63;;;;;;;14.06;73.64;101781.88;4969225;28;20589;-72
2023/04/29 08:56:20;;;;;;;17.38;10.45;;;;;;;14.16;71.77;101785.97;4969525;28;20049;-70
2023/04/29 08:58:57;;;;;;;20.75;10.70;;;;;;;14.25;73.01;101791.00;4969230;28;20043;-69
2023/04/29 09:01:27;;;;;;;14.98;9.80;;;;;;;14.38;71.11;101788.84;4967541;28;20067;-70
2023/04/29 09:04:36;;;;;;;16.65;9.60;;;;;;;14.50;70.66;101792.88;4967055;28;20544;-70
2023/04/29 09:07:05;;;;;;;16.92;9.57;;;;;;;14.59;69.55;101797.03;4969237;28;20039;-70
2023/04/29 09:09:34;;;;;;;16.55;9.18;;;;;;;14.69;67.65;101795.84;4968178;28;20098;-70
2023/04/29 09:12:01;;;;;;;12.88;8.57;;;;;;;14.62;66.76;101801.38;4968936;28;20046;-70
2023/04/29 09:14:34;;;;;;;17.50;9.35;;;;;;;14.65;67.37;101798.63;4968868;28;20038;-71
2023/04/29 09:17:01;;;;;;;16.25;9.00;;;;;;;14.68;67.04;101796.75;4969150;28;20142;-70
2023/04/29 09:19:34;;;;;;;13.10;8.43;;;;;;;14.70;66.92;101807.34;4968496;28;20050;-70
2023/04/29 09:22:03;;;;;;;14.80;9.32;;;;;;;14.60;67.70;101810.25;4966974;28;20038;-71
2023/04/29 09:24:31;;;;;;;12.85;8.80;;;;;;;14.59;66.30;101810.31;4972458;28;20110;-71
2023/04/29 09:26:59;;;;;;;14.93;8.90;;;;;;;14.52;66.48;101817.56;4969044;28;20043;-70
2023/04/29 09:29:26;;;;;;;15.70;8.77;;;;;;;14.49;65.64;101816.81;4983949;28;20043;-70
2023/04/29 09:31:53;;;;;;;15.93;8.85;;;;;;;14.50;66.40;101818.56;4968890;28;20047;-70
2023/04/29 09:34:36;;;;;;;12.63;9.07;;;;;;;14.60;66.50;101817.34;4982451;28;20046;-70
2023/04/29 09:37:03;;;;;;;15.55;9.40;;;;;;;14.70;65.78;101815.31;4968803;28;20050;-70
2023/04/29 09:39:38;;;;;;;15.93;9.30;;;;;;;14.84;66.06;101812.22;4968990;28;20039;-70
2023/04/29 09:42:07;;;;;;;13.25;8.60;;;;;;;15.01;63.14;101809.84;4967326;28;20523;-70
2023/04/29 09:44:34;;;;;;;18.45;8.73;;;;;;;15.07;64.67;101811.44;4983574;28;20482;-70
2023/04/29 09:47:03;;;;;;;13.45;8.30;;;;;;;15.24;62.92;101808.22;4968152;28;20043;-71
2023/04/29 09:49:36;;;;;;;13.40;8.32;;;;;;;15.36;62.51;101812.22;4966254;28;20043;-71
2023/04/29 09:52:07;;;;;;;13.05;7.10;;;;;;;15.38;61.81;101810.38;4968727;28;20047;-70
2023/04/29 09:54:37;;;;;;;16.63;8.60;;;;;;;15.55;61.93;101815.09;4980035;28;20122;-70
2023/04/29 09:57:06;;;;;;;16.27;7.80;;;;;;;15.65;59.81;101807.66;4987494;28;20147;-70
2023/04/29 09:59:38;;;;;;;13.00;7.97;;;;;;;15.45;58.83;101813.69;4986541;28;20083;-70
2023/04/29 10:02:17;;;;;;;14.23;8.00;;;;;;;15.28;60.61;101823.09;4988073;28;20539;-72
2023/04/29 10:04:53;;;;;;;16.13;8.05;;;;;;;15.30;59.78;101815.94;4987073;28;20046;-71
2023/04/29 10:07:21;;;;;;;13.13;8.18;;;;;;;15.43;62.04;101812.88;4987026;28;20531;-72
2023/04/29 10:09:49;;;;;;;15.48;9.00;;;;;;;15.72;62.98;101822.44;4987820;28;20054;-71
2023/04/29 10:12:19;;;;;;;13.45;8.48;;;;;;;15.81;60.76;101830.09;4988136;28;20527;-72
2023/04/29 10:15:21;;;;;;;16.33;8.32;;;;;;;15.74;59.76;101836.56;4985923;28;20041;-72
2023/04/29 10:18:08;;;;;;;12.40;8.32;;;;;;;15.70;61.17;101837.59;4986175;28;20570;-72
2023/04/29 10:20:42;;;;;;;12.82;7.75;;;;;;;15.78;60.88;101838.19;4985112;28;20590;-72
2023/04/29 10:23:12;;;;;;;13.93;8.27;;;;;;;15.85;60.52;101838.88;4986590;28;20042;-72
2023/04/29 10:25:42;;;;;;;11.85;8.15;;;;;;;15.79;60.89;101837.25;4971464;28;20035;-71
2023/04/29 10:28:15;;;;;;;11.15;7.80;;;;;;;16.03;60.54;101828.47;4968749;28;20039;-72
2023/04/29 10:30:44;;;;;;;12.23;8.23;;;;;;;16.11;59.66;101834.34;4968300;28;20550;-72
2023/04/29 10:33:15;;;;;;;12.88;7.32;;;;;;;16.07;60.71;101830.94;4982546;28;20039;-72
2023/04/29 10:35:43;;;;;;;11.85;8.02;;;;;;;16.10;59.49;101836.16;4998618;28;20034;-69
2023/04/29 10:38:27;;;;;;;12.38;8.07;;;;;;;16.09;59.59;101841.53;4986498;28;20039;-70
2023/04/29 10:41:01;;;;;;;11.30;8.10;;;;;;;16.11;59.14;101837.91;4987504;28;20058;-70
2023/04/29 10:43:30;;;;;;;15.02;8.00;;;;;;;16.20;58.87;101844.66;5001319;28;20094;-70
2023/04/29 10:46:15;;;;;;;14.10;7.82;;;;;;;16.18;59.02;101843.81;4987462;28;20035;-70
2023/04/29 10:48:43;;;;;;;10.48;7.22;;;;;;;16.21;58.36;101841.06;4986233;28;20496;-71
2023/04/29 10:51:11;;;;;;;10.85;7.60;;;;;;;16.22;58.00;101845.47;4985676;28;20062;-70
2023/04/29 10:54:00;;;;;;;13.07;7.68;;;;;;;16.35;58.39;101847.66;4984924;28;20035;-71
2023/04/29 10:56:49;;;;;;;14.80;7.47;;;;;;;16.66;55.71;101846.44;4987781;28;20045;-69
2023/04/29 10:59:21;;;;;;;15.77;8.18;;;;;;;16.80;57.05;101844.06;4987591;28;20620;-70
2023/04/29 11:01:51;;;;;;;11.63;8.30;;;;;;;16.72;57.27;101843.53;4986709;28;20101;-70
2023/04/29 11:04:21;;;;;;;12.40;7.30;;;;;;;16.61;56.56;101836.00;4986534;28;20101;-71
2023/04/29 11:06:57;;;;;;;11.35;7.82;;;;;;;16.29;57.46;101838.97;4986485;28;20043;-69
2023/04/29 11:09:35;;;;;;;10.45;6.50;;;;;;;16.02;56.21;101845.34;4986501;28;20419;-71
2023/04/29 11:12:09;;;;;;;13.07;7.47;;;;;;;15.63;56.57;101850.25;4987290;28;20047;-70
2023/04/29 11:14:39;;;;;;;11.45;6.28;;;;;;;15.63;57.54;101857.31;4987266;28;20043;-70
2023/04/29 11:17:14;;;;;;;9.50;6.47;;;;;;;16.03;55.97;101847.09;4986802;28;20114;-70
2023/04/29 11:19:49;;;;;;;11.90;6.30;;;;;;;16.43;55.08;101858.88;4986444;28;20047;-70
2023/04/29 11:22:17;;;;;;;9.63;6.28;;;;;;;16.43;55.84;101843.75;4987243;28;20595;-70
2023/04/29 11:25:01;;;;;;;9.63;7.00;;;;;;;16.40;55.13;101846.56;4986084;28;20126;-70
2023/04/29 11:27:33;;;;;;;;;;;;;;;16.18;55.95;101851.81;4987554;28;20523;-70
2023/04/29 11:30:03;;;;;;;13.18;7.20;;;;;;;16.01;57.74;101846.25;4987506;28;19930;-71